Air Force Village West, CA

7:09 PM PDT on September 20, 2014 (GMT -0700)
March Air Reserve Base | Change Station
CLOSE
Current Station
Airport
Location: Riverside March,
Elevation: 1535 ft
Nearby Weather Stations
Active Advisory: Areal Flood Advisory

Elev 1535 ft 33.90 °N, 117.25 °W | Updated 11 minutes ago

Clear
Clear
74 °F
Feels Like 74 °F
N
12
Wind Variable Wind from WNW

Today
High -- | Low -- °F
--% Chance of Precip.
Yesterday
High -- | Low -- °F
Precip. -- in
6:35 AM 6:48 PM
Waning Crescent, 9% visible
Pressure 29.88 in
Visibility 10.0 miles
Clouds Clear
Dew Point 61 °F
Humidity 63%
Rainfall 0.00 in
Snow Depth 0 in , 0 in , 0 in
UV 0 out of 12
Pollen 6.80 out of 12
Ozone Good
PM2.5 Good
Flu Activity Not available.
METAR KRIV 210158Z AUTO 30010KT 10SM CLR 24/16 A2991 RMK AO2 SLP119 T02350160

More Conditions Fewer Conditions

Pressure 29.88 in
Visibility 10.0 miles
Clouds Clear
Dew Point 61 °F
Humidity 63%
Rainfall 0.00 in
Snow Depth 0 in , 0 in , 0 in
UV 0 out of 12
Pollen 6.80 out of 12
Ozone Good
PM2.5 Good
Flu Activity Not available.
METAR KRIV 210158Z AUTO 30010KT 10SM CLR 24/16 A2991 RMK AO2 SLP119 T02350160

More Conditions Fewer Conditions

10-Day Weather Forecast

Almanac

Astronomy

Sep. 20, 2014 Rise Set
Actual Time 6:35 AM PDT 6:48 PM PDT
Civil Twilight 6:10 AM PDT 7:13 PM PDT
Nautical Twilight 5:41 AM PDT 7:42 PM PDT
Astronomical Twilight 5:12 AM PDT 8:11 PM PDT
Moon 3:26 AM PDT (9/20) 4:48 PM PDT (9/20)
Length of Visible Light 13h 02m
Length of Day
12h 12m
Tomorrow will be 2m 6s shorter.
Waning Crescent, 9% of the Moon is Illuminated
Today
Waning Crescent
Sep 24
New
Oct 1
First Quarter
Oct 8
Full
Oct 15
Last Quarter

Today's Extremes

State Highs State Lows

Community

WunderPhotos

Upload Photos

1,755,032 photos uploaded!

WunderBlogs® & News

Nearby

Air Quality

  Air Quality AQ Index Pollutant
Yesterday Good
PM10
Yesterday Good
OZONE
Current Good
PM2.5
Current Good
OZONE
Sunday Good
PM10
Sunday Good
OZONE
Sunday Good
CO
Sunday Good
NO2

Snow Depth

Station Depth Elevation
CSS Lab 0 in 6900 ft
Burnside Lake 0 in 8139 ft
Adin Mountain 0 in 6200 ft
Monitor Pass 0 in 8350 ft
Spratt Creek 0 in 6200 ft

Earthquake Activity

City Distance Mag. Time & Date
Aguanga, California 40 miles 2.5 1:38 AM PDT
2014-09-19
Minimum magnitude displayed is 2.5.

Coastal Water Temperatures

Place Temperature
No Stations Reporting

Nearby Weather Stations